Time;durP1;ratioP1;P1;durP2;ratioP2;P2;SDS_P1;SDS_P2;PMS_P1;PMS_P2;Temp;Humidity;BMP_temperature;BMP_pressure;BME280_temperature;BME280_humidity;BME280_pressure;Samples;Min_cycle;Max_cycle;Signal;HPM_P1;HPM_P2
2023/09/15 00:02:58;;;;;;;10.60;8.40;;;;;;;12.71;79.42;99179.81;435176;1256;99260;-43
2023/09/15 00:13:03;;;;;;;13.30;7.80;;;;;;;12.71;79.85;99184.31;435188;1256;107427;-43
2023/09/15 00:23:10;;;;;;;15.30;7.40;;;;;;;12.79;80.17;99196.52;435334;1256;99319;-42
2023/09/15 00:33:15;;;;;;;16.00;8.80;;;;;;;12.85;80.35;99196.49;434893;1256;406209;-41
2023/09/15 00:43:22;;;;;;;14.00;7.30;;;;;;;13.03;80.88;99194.98;435096;1253;107932;-44
2023/09/15 00:53:29;;;;;;;13.60;8.80;;;;;;;13.17;81.03;99193.56;435166;1256;99278;-43
2023/09/15 01:03:40;;;;;;;20.70;9.60;;;;;;;13.38;81.24;99202.19;435043;1251;108407;-43
2023/09/15 01:13:49;;;;;;;15.50;9.60;;;;;;;13.51;81.32;99214.90;435281;1253;97982;-43
2023/09/15 01:24:40;;;;;;;17.40;9.90;;;;;;;13.56;81.37;99218.73;435233;1256;111599;-41
2023/09/15 01:34:46;;;;;;;15.90;8.60;;;;;;;13.65;81.42;99217.89;435077;1256;109946;-42
2023/09/15 01:44:54;;;;;;;14.20;8.50;;;;;;;13.70;81.64;99224.80;436057;1245;99256;-42
2023/09/15 01:55:03;;;;;;;16.80;8.60;;;;;;;13.76;81.89;99223.56;435116;1257;107539;-42
2023/09/15 02:05:19;;;;;;;15.20;8.60;;;;;;;13.79;81.87;99222.39;434963;1271;99349;-44
2023/09/15 02:15:26;;;;;;;14.20;7.40;;;;;;;13.85;82.39;99223.29;435079;1253;111700;-43
2023/09/15 02:35:37;;;;;;;12.70;8.30;;;;;;;14.07;82.63;99232.12;434905;1253;98022;-42
2023/09/15 02:45:44;;;;;;;17.40;8.00;;;;;;;14.15;82.65;99233.44;434794;1257;108367;-43
2023/09/15 02:55:55;;;;;;;9.90;7.00;;;;;;;14.04;82.44;99232.08;434962;1258;99215;-43
2023/09/15 03:06:03;;;;;;;11.70;7.90;;;;;;;14.14;82.97;99234.91;435092;1253;112072;-43
2023/09/15 03:26:16;;;;;;;;;;;;;;;14.12;83.01;99234.88;434957;1252;99352;-42
2023/09/15 03:36:25;;;;;;;15.50;7.20;;;;;;;14.20;83.43;99239.40;435056;1257;107883;-44
2023/09/15 03:46:32;;;;;;;9.50;7.10;;;;;;;14.30;83.49;99240.84;434927;1259;98354;-43
2023/09/15 03:56:39;;;;;;;13.10;7.70;;;;;;;14.35;83.46;99250.29;434804;1254;111547;-43
2023/09/15 04:06:46;;;;;;;23.00;9.20;;;;;;;14.34;83.55;99263.15;434933;1258;106539;-42
2023/09/15 04:26:58;;;;;;;13.60;7.90;;;;;;;14.39;83.75;99279.77;435079;1257;107929;-42
2023/09/15 04:37:06;;;;;;;14.90;7.30;;;;;;;14.53;84.00;99284.23;434991;1255;99240;-42
2023/09/15 04:47:13;;;;;;;18.10;8.90;;;;;;;14.55;83.90;99290.44;435118;1258;111675;-42
2023/09/15 04:57:20;;;;;;;13.40;7.20;;;;;;;14.53;84.12;99299.45;434903;1256;108391;-41
2023/09/15 05:07:27;;;;;;;14.70;7.50;;;;;;;14.56;84.03;99306.37;435006;1257;99252;-42
2023/09/15 05:17:35;;;;;;;14.70;7.80;;;;;;;14.70;84.21;99316.55;434938;1253;108652;-46
2023/09/15 05:37:49;;;;;;;16.50;7.70;;;;;;;15.14;84.37;99315.44;436100;1257;112350;-43
2023/09/15 05:47:55;;;;;;;11.30;6.10;;;;;;;15.31;84.55;99319.92;434861;1259;107517;-42
2023/09/15 05:58:01;;;;;;;10.60;5.50;;;;;;;15.52;84.35;99325.17;434890;1257;99247;-42
2023/09/15 06:08:09;;;;;;;6.30;4.00;;;;;;;15.69;84.52;99324.19;434865;1253;108042;-43
2023/09/15 06:18:16;;;;;;;8.70;4.00;;;;;;;15.83;84.41;99336.05;434932;1257;99172;-42
2023/09/15 06:28:23;;;;;;;6.50;4.50;;;;;;;15.95;84.55;99335.36;435061;1253;112049;-41
2023/09/15 06:38:33;;;;;;;8.10;3.90;;;;;;;16.41;84.52;99342.52;435011;1258;108747;-43
2023/09/15 06:48:41;;;;;;;8.50;4.30;;;;;;;16.85;84.32;99340.81;435019;1253;99320;-43
2023/09/15 07:08:54;;;;;;;6.50;4.30;;;;;;;18.39;82.37;99327.84;434957;1253;99234;-43
2023/09/15 07:19:01;;;;;;;10.60;4.20;;;;;;;19.27;81.33;99335.52;435122;1256;111290;-43
2023/09/15 07:29:08;;;;;;;6.70;4.40;;;;;;;19.70;80.55;99336.13;435054;1267;109307;-42
2023/09/15 07:39:12;;;;;;;4.40;3.20;;;;;;;19.39;78.66;99343.73;435064;1259;99215;-41
2023/09/15 07:49:20;;;;;;;4.80;2.30;;;;;;;18.97;77.95;99348.29;435241;1254;108718;-44
2023/09/15 07:59:27;;;;;;;6.20;3.30;;;;;;;19.32;76.28;99352.30;435207;1257;99392;-42
2023/09/15 08:09:34;;;;;;;5.80;2.50;;;;;;;19.51;74.70;99355.09;434952;1253;111807;-42
2023/09/15 08:19:41;;;;;;;5.00;2.70;;;;;;;19.78;73.32;99352.44;435254;1257;107537;-42
2023/09/15 08:29:48;;;;;;;10.40;2.80;;;;;;;19.85;70.55;99358.43;435347;1253;98630;-43
2023/09/15 08:39:54;;;;;;;5.40;2.40;;;;;;;20.06;69.83;99357.23;435267;1256;107486;-42
2023/09/15 08:50:04;;;;;;;3.80;2.50;;;;;;;20.11;67.49;99358.35;434958;1253;99215;-40
2023/09/15 09:20:25;;;;;;;3.70;1.90;;;;;;;20.15;63.79;99363.55;435444;1256;97968;-41
2023/09/15 09:30:33;;;;;;;2.40;1.60;;;;;;;20.32;63.06;99363.91;435276;1259;107207;-41
2023/09/15 09:40:38;;;;;;;3.80;1.60;;;;;;;20.33;60.96;99360.39;435382;1253;98809;-41
2023/09/15 10:00:55;;;;;;;3.40;1.90;;;;;;;20.36;58.09;99361.69;435416;1253;108728;-42
2023/09/15 10:11:04;;;;;;;3.10;1.90;;;;;;;20.33;57.12;99363.84;435376;1257;99374;-41
2023/09/15 10:21:11;;;;;;;3.40;2.10;;;;;;;20.55;56.79;99352.75;435428;1257;106806;-42
2023/09/15 10:31:17;;;;;;;3.80;1.70;;;;;;;20.42;55.66;99343.73;435283;1256;99240;-42
2023/09/15 10:41:30;;;;;;;2.40;1.80;;;;;;;20.70;56.35;99335.20;435479;1256;111034;-45
2023/09/15 10:51:39;;;;;;;2.20;1.60;;;;;;;20.71;55.01;99333.09;435125;1257;107738;-40
2023/09/15 11:11:53;;;;;;;3.30;1.60;;;;;;;20.84;53.50;99327.58;435000;1255;107900;-44
2023/09/15 11:22:03;;;;;;;3.50;1.90;;;;;;;20.89;52.63;99325.52;435252;1255;99121;-43
2023/09/15 11:32:11;;;;;;;6.80;2.10;;;;;;;21.03;52.96;99324.74;435288;1266;111369;-41
2023/09/15 11:42:18;;;;;;;5.30;1.70;;;;;;;21.21;53.22;99320.48;435064;1254;108759;-42
2023/09/15 12:02:32;;;;;;;6.10;2.70;;;;;;;20.98;51.97;99318.28;435211;1257;108745;-41
2023/09/15 12:12:38;;;;;;;6.00;2.50;;;;;;;20.96;51.55;99310.19;434979;1254;99262;-42
2023/09/15 12:22:46;;;;;;;2.60;1.60;;;;;;;20.86;51.54;99301.13;435223;1257;111871;-42
2023/09/15 12:32:55;;;;;;;4.50;1.90;;;;;;;20.75;51.08;99290.33;434617;1258;426433;-44
2023/09/15 12:43:00;;;;;;;4.50;1.70;;;;;;;20.67;50.59;99284.92;435098;1254;99241;-42
2023/09/15 12:53:05;;;;;;;5.20;2.10;;;;;;;20.73;51.15;99276.00;435006;1254;108587;-42
2023/09/15 13:03:11;;;;;;;2.60;1.60;;;;;;;20.79;50.86;99270.74;435165;1253;99212;-42
2023/09/15 13:13:18;;;;;;;3.60;2.20;;;;;;;20.79;50.87;99271.06;435153;1257;112186;-44
2023/09/15 13:23:25;;;;;;;4.40;2.10;;;;;;;20.75;50.85;99263.73;435073;1254;108947;-43
2023/09/15 13:33:33;;;;;;;3.00;1.70;;;;;;;20.82;50.48;99263.20;435579;1256;98701;-42
2023/09/15 13:53:47;;;;;;;4.10;2.10;;;;;;;20.79;50.45;99249.98;435650;1267;99246;-44
2023/09/15 14:03:53;;;;;;;5.60;2.00;;;;;;;20.78;50.48;99232.58;435014;1258;112049;-42
2023/09/15 14:14:00;;;;;;;3.40;2.20;;;;;;;20.80;50.46;99218.43;435114;1254;108070;-43
2023/09/15 14:24:07;;;;;;;6.50;2.20;;;;;;;20.89;50.94;99208.73;435526;1266;99314;-43
2023/09/15 14:44:21;;;;;;;6.20;2.00;;;;;;;20.78;49.84;99205.16;435149;1266;98837;-42
2023/09/15 14:54:29;;;;;;;9.40;2.70;;;;;;;20.74;49.96;99196.45;435263;1254;109687;-43
2023/09/15 15:04:36;;;;;;;4.90;2.20;;;;;;;20.70;49.81;99189.71;434334;1258;106826;-43
2023/09/15 15:45:00;;;;;;;2.70;1.70;;;;;;;20.34;50.47;99183.73;434307;1257;111870;-43
2023/09/15 16:05:15;;;;;;;2.40;1.90;;;;;;;20.00;50.65;99190.92;434401;1257;99327;-42
2023/09/15 16:15:19;;;;;;;3.60;2.40;;;;;;;19.80;50.46;99186.65;434387;1253;108023;-43
2023/09/15 16:25:26;;;;;;;4.40;2.40;;;;;;;19.58;50.81;99188.84;434322;1267;97995;-42
2023/09/15 16:35:34;;;;;;;3.40;2.80;;;;;;;19.33;51.27;99187.19;434570;1254;112098;-42
2023/09/15 16:45:41;;;;;;;5.10;2.60;;;;;;;19.08;51.63;99187.90;434335;1257;109946;-41
2023/09/15 16:55:52;;;;;;;3.90;2.90;;;;;;;18.74;52.09;99188.30;434309;1253;99360;-42
2023/09/15 17:16:05;;;;;;;5.50;3.20;;;;;;;18.00;53.57;99197.86;434211;1267;99174;-42
2023/09/15 17:26:12;;;;;;;5.10;3.80;;;;;;;17.69;54.31;99214.17;434300;1254;111764;-42
2023/09/15 17:36:19;;;;;;;7.30;4.60;;;;;;;17.41;54.97;99219.21;434360;1254;108551;-43
2023/09/15 17:56:32;;;;;;;4.90;4.40;;;;;;;16.98;55.87;99231.50;434395;1257;107835;-43
2023/09/15 18:06:37;;;;;;;8.90;4.10;;;;;;;16.84;56.15;99235.73;434337;1253;99260;-41
2023/09/15 18:16:43;;;;;;;10.20;5.40;;;;;;;16.67;56.66;99248.40;434384;1256;111675;-42
2023/09/15 18:26:50;;;;;;;10.30;4.90;;;;;;;16.46;57.28;99259.78;434341;1257;108589;-41
2023/09/15 18:47:04;;;;;;;12.00;7.80;;;;;;;15.93;57.91;99251.95;434937;1253;108069;-40
2023/09/15 18:57:11;;;;;;;13.70;7.60;;;;;;;15.60;58.57;99257.36;434804;1257;99240;-42
2023/09/15 19:07:18;;;;;;;10.70;7.30;;;;;;;15.36;59.29;99256.14;434725;1257;112458;-43
2023/09/15 19:27:37;;;;;;;19.60;8.20;;;;;;;14.87;60.92;99267.87;434398;1253;97996;-42
2023/09/15 19:37:45;;;;;;;15.50;7.50;;;;;;;14.71;61.45;99274.85;434411;1257;108031;-42
2023/09/15 19:47:52;;;;;;;9.00;5.50;;;;;;;14.55;61.86;99281.70;434835;1257;97992;-42
2023/09/15 19:58:02;;;;;;;11.80;5.90;;;;;;;14.53;62.26;99269.23;434726;1257;110357;-42
2023/09/15 20:08:10;;;;;;;8.10;4.40;;;;;;;14.58;62.75;99260.84;434513;1253;108605;-43
2023/09/15 20:18:15;;;;;;;8.40;5.60;;;;;;;14.58;63.09;99258.83;434542;1255;99350;-41
2023/09/15 20:28:23;;;;;;;13.70;7.00;;;;;;;14.46;63.21;99264.20;434260;1258;108768;-42
2023/09/15 20:38:30;;;;;;;8.70;6.00;;;;;;;14.43;63.55;99264.27;434224;1257;99250;-42
2023/09/15 20:48:37;;;;;;;16.40;6.90;;;;;;;14.46;63.81;99260.80;434913;1255;112907;-41
2023/09/15 20:58:45;;;;;;;12.10;6.80;;;;;;;14.38;64.24;99269.41;434248;1253;108333;-41
2023/09/15 21:08:51;;;;;;;10.70;6.30;;;;;;;14.25;64.58;99269.43;434314;1253;99232;-41
2023/09/15 21:18:56;;;;;;;15.50;6.70;;;;;;;14.12;64.80;99261.77;434288;1257;108271;-42
2023/09/15 21:29:04;;;;;;;10.20;6.60;;;;;;;14.02;65.16;99258.19;434296;1253;99326;-41
2023/09/15 21:39:11;;;;;;;10.10;5.70;;;;;;;13.75;65.64;99256.38;434215;1257;112109;-44
2023/09/15 21:59:24;;;;;;;12.60;6.80;;;;;;;13.58;66.27;99245.98;434388;1267;99829;-41
2023/09/15 22:29:43;;;;;;;12.90;6.40;;;;;;;13.44;67.21;99242.77;434424;1253;111745;-42
2023/09/15 22:39:49;;;;;;;10.20;6.10;;;;;;;13.38;67.43;99233.81;434331;1257;107840;-42
2023/09/15 22:49:56;;;;;;;16.10;7.10;;;;;;;13.34;67.71;99227.31;434336;1257;99240;-40
2023/09/15 23:10:11;;;;;;;14.90;8.20;;;;;;;12.96;68.01;99219.66;434301;1257;101522;-42
2023/09/15 23:20:18;;;;;;;12.30;6.70;;;;;;;12.80;68.25;99217.77;434348;1253;110864;-42
2023/09/15 23:30:25;;;;;;;9.70;5.80;;;;;;;12.75;68.60;99213.18;434334;1253;107306;-42
2023/09/15 23:40:31;;;;;;;14.70;7.30;;;;;;;12.72;69.05;99207.11;434474;1257;99142;-42
2023/09/15 23:50:38;;;;;;;13.50;7.00;;;;;;;12.64;69.11;99205.86;434394;1256;108453;-42
